Koyo — JD2279 — position and weather

sailwx.info

Track history (hours):
 
Tides and Currents Weather Stations Pressure Air Temp Water Temp Dewpoint Dewpoint Depression Visibility Wind Speed Wind Dir Waves Ship Positions

Koyo

Last reported at 2014-Jul-30 05:32 UTC. Time now 2014-Jul-30 13:14 UTC.
Position N 34°36' E 134°53'.

Length 80 m; draft 3.6 m.

Type: Cargo ship. MMSI: 431301812.

Date/timePositionNaut miles runAvg speedWind from/ knotsBaromVisibWave heightAir tempDewpointWater temp
2014-Jul-30 05:32N 34°36' E 134°53'10 9.9
2014-Jul-30 04:33N 34°36' E 135°05'1211.8
2014-Jul-30 03:33N 34°38' E 135°19'5 5.0
2014-Jul-30 02:33N 34°38' E 135°25'5 5.1
2014-Jul-30 01:33N 34°37' E 135°19'5 4.2
2014-Jul-30 00:28N 34°40' E 135°14'0 0.0
2014-Jul-29 23:28N 34°40' E 135°14'2 2.4
2014-Jul-29 22:33N 34°37' E 135°15'6 5.5
2014-Jul-29 21:33N 34°35' E 135°09'1110.7
2014-Jul-29 20:33N 34°36' E 134°56'11711.6
2014-Jul-29 10:29N 34°05' E 132°40'1410.2
2014-Jul-29 09:05N 34°08' E 132°23'611.1
2014-Jul-29 08:33N 34°14' E 132°22'1010.1
2014-Jul-29 07:33N 34°21' E 132°31'0 0.1
2014-Jul-29 06:31N 34°21' E 132°31'0 0.0
2014-Jul-29 05:31N 34°21' E 132°31'0 0.4
2014-Jul-29 04:33N 34°21' E 132°30'1111.5
2014-Jul-29 03:33N 34°13' E 132°21'18 1.6
2014-Jul-28 16:25N 34°01' E 132°37'118 9.2
2014-Jul-28 03:33N 34°36' E 134°54'1211.9
2014-Jul-28 02:33N 34°36' E 135°08'6 5.8
2014-Jul-28 01:30N 34°39' E 135°14'0 0.0
2014-Jul-28 00:18N 34°39' E 135°14'0 0.0
2014-Jul-27 23:24N 34°39' E 135°14'2 2.3
2014-Jul-27 22:33N 34°41' E 135°13'0 0.5
2014-Jul-27 21:30N 34°41' E 135°12'0 0.0
2014-Jul-27 20:30N 34°41' E 135°12'0 0.0
2014-Jul-27 19:24N 34°41' E 135°12'0 0.0
2014-Jul-27 18:30N 34°41' E 135°12'0 0.0
2014-Jul-27 17:30N 34°41' E 135°12'0 0.0
2014-Jul-27 16:30N 34°41' E 135°12'0 0.0
2014-Jul-27 15:30N 34°41' E 135°12'0 0.0
2014-Jul-27 14:30N 34°41' E 135°12'0 0.0
2014-Jul-27 13:30N 34°41' E 135°12'0 0.0
2014-Jul-27 12:30N 34°41' E 135°12'0 0.0
2014-Jul-27 11:18N 34°41' E 135°12'0 0.0
2014-Jul-27 10:06N 34°41' E 135°12'0 0.0
2014-Jul-27 09:30N 34°41' E 135°12'0 0.0
2014-Jul-27 08:24N 34°41' E 135°12'0 0.0
2014-Jul-27 07:30N 34°41' E 135°12'0 0.0
2014-Jul-27 06:24N 34°41' E 135°12'0 0.0
2014-Jul-27 05:30N 34°41' E 135°12'0 0.0
2014-Jul-27 04:30N 34°41' E 135°12'0 0.0
2014-Jul-27 03:18N 34°41' E 135°12'0 0.0
2014-Jul-27 02:30N 34°41' E 135°12'0 0.0
2014-Jul-27 01:30N 34°41' E 135°12'0 0.0
2014-Jul-27 00:30N 34°41' E 135°12'0 0.0
2014-Jul-26 23:30N 34°41' E 135°12'0 0.0
2014-Jul-26 22:30N 34°41' E 135°12'0 0.0
2014-Jul-26 21:30N 34°41' E 135°12'0 0.0
2014-Jul-26 20:33N 34°41' E 135°12'4 3.5
2014-Jul-26 19:33N 34°39' E 135°16'1110.6
2014-Jul-26 18:33N 34°35' E 135°03'1312.3
2014-Jul-26 17:32N 34°33' E 134°48'11111.1
2014-Jul-26 07:31N 34°02' E 132°39'114 3.9
2014-Jul-25 02:32N 34°35' E 134°51'1111.0
2014-Jul-25 01:33N 34°36' E 135°04'9 8.5
2014-Jul-25 00:30N 34°40' E 135°14'0 0.0
2014-Jul-24 23:30N 34°40' E 135°14'1 1.1
2014-Jul-24 22:33N 34°39' E 135°15'0 0.0
2014-Jul-24 21:27N 34°39' E 135°15'0 0.0
2014-Jul-24 20:33N 34°39' E 135°15'4 4.3
2014-Jul-24 19:33N 34°36' E 135°10'1111.0
2014-Jul-24 18:32N 34°36' E 134°57'11611.3
2014-Jul-24 08:19N 34°03' E 132°42'2311.1
2014-Jul-24 06:13N 33°50' E 132°19'18 1.5
2014-Jul-23 18:14N 34°01' E 132°37'11610.8
2014-Jul-23 07:33N 34°35' E 134°50'1212.3
2014-Jul-23 06:33N 34°36' E 135°05'8 8.1
2014-Jul-23 05:31N 34°40' E 135°14'0 0.0
2014-Jul-23 04:25N 34°40' E 135°14'0 0.0
2014-Jul-23 03:13N 34°40' E 135°14'0 0.0
2014-Jul-23 02:33N 34°40' E 135°14'2 2.2
2014-Jul-23 01:33N 34°37' E 135°14'1111.2
2014-Jul-23 00:33N 34°37' E 135°01'1211.9
2014-Jul-22 23:31N 34°32' E 134°47'10010.0
2014-Jul-22 13:28N 34°05' E 132°50'1011.1
2014-Jul-22 12:33N 33°57' E 132°42'110 3.8
2014-Jul-21 07:33N 34°33' E 134°47'1413.7
2014-Jul-21 06:33N 34°36' E 135°03'10 9.8
2014-Jul-21 05:33N 34°40' E 135°15'0 0.2
2014-Jul-21 04:33N 34°39' E 135°14'0 0.0
2014-Jul-21 03:33N 34°39' E 135°14'1 0.5
2014-Jul-21 02:33N 34°39' E 135°15'1 0.7
2014-Jul-21 01:30N 34°38' E 135°15'1 1.0
2014-Jul-21 00:33N 34°38' E 135°14'1010.5
2014-Jul-20 23:34N 34°36' E 135°02'  
Track history (hours):
 
Tides and Currents Weather Stations Pressure Air Temp Water Temp Dewpoint Dewpoint Depression Visibility Wind Speed Wind Dir Waves Ship Positions

Koyo

Last reported at 2014-Jul-30 05:32 UTC. Time now 2014-Jul-30 13:14 UTC.
Position N 34°36' E 134°53'.

Length 80 m; draft 3.6 m.

Type: Cargo ship. MMSI: 431301812.

Date/timePositionNaut miles runAvg speedWind from/ knotsBaromVisibWave heightAir tempDewpointWater temp
2014-Jul-30 05:32N 34°36' E 134°53'10 9.9
2014-Jul-30 04:33N 34°36' E 135°05'1211.8
2014-Jul-30 03:33N 34°38' E 135°19'5 5.0
2014-Jul-30 02:33N 34°38' E 135°25'5 5.1
2014-Jul-30 01:33N 34°37' E 135°19'5 4.2
2014-Jul-30 00:28N 34°40' E 135°14'0 0.0
2014-Jul-29 23:28N 34°40' E 135°14'2 2.4
2014-Jul-29 22:33N 34°37' E 135°15'6 5.5
2014-Jul-29 21:33N 34°35' E 135°09'1110.7
2014-Jul-29 20:33N 34°36' E 134°56'11711.6
2014-Jul-29 10:29N 34°05' E 132°40'1410.2
2014-Jul-29 09:05N 34°08' E 132°23'611.1
2014-Jul-29 08:33N 34°14' E 132°22'1010.1
2014-Jul-29 07:33N 34°21' E 132°31'0 0.1
2014-Jul-29 06:31N 34°21' E 132°31'0 0.0
2014-Jul-29 05:31N 34°21' E 132°31'0 0.4
2014-Jul-29 04:33N 34°21' E 132°30'1111.5
2014-Jul-29 03:33N 34°13' E 132°21'18 1.6
2014-Jul-28 16:25N 34°01' E 132°37'118 9.2
2014-Jul-28 03:33N 34°36' E 134°54'1211.9
2014-Jul-28 02:33N 34°36' E 135°08'6 5.8
2014-Jul-28 01:30N 34°39' E 135°14'0 0.0
2014-Jul-28 00:18N 34°39' E 135°14'0 0.0
2014-Jul-27 23:24N 34°39' E 135°14'2 2.3
2014-Jul-27 22:33N 34°41' E 135°13'0 0.5
2014-Jul-27 21:30N 34°41' E 135°12'0 0.0
2014-Jul-27 20:30N 34°41' E 135°12'0 0.0
2014-Jul-27 19:24N 34°41' E 135°12'0 0.0
2014-Jul-27 18:30N 34°41' E 135°12'0 0.0
2014-Jul-27 17:30N 34°41' E 135°12'0 0.0
2014-Jul-27 16:30N 34°41' E 135°12'0 0.0
2014-Jul-27 15:30N 34°41' E 135°12'0 0.0
2014-Jul-27 14:30N 34°41' E 135°12'0 0.0
2014-Jul-27 13:30N 34°41' E 135°12'0 0.0
2014-Jul-27 12:30N 34°41' E 135°12'0 0.0
2014-Jul-27 11:18N 34°41' E 135°12'0 0.0
2014-Jul-27 10:06N 34°41' E 135°12'0 0.0
2014-Jul-27 09:30N 34°41' E 135°12'0 0.0
2014-Jul-27 08:24N 34°41' E 135°12'0 0.0
2014-Jul-27 07:30N 34°41' E 135°12'0 0.0
2014-Jul-27 06:24N 34°41' E 135°12'0 0.0
2014-Jul-27 05:30N 34°41' E 135°12'0 0.0
2014-Jul-27 04:30N 34°41' E 135°12'0 0.0
2014-Jul-27 03:18N 34°41' E 135°12'0 0.0
2014-Jul-27 02:30N 34°41' E 135°12'0 0.0
2014-Jul-27 01:30N 34°41' E 135°12'0 0.0
2014-Jul-27 00:30N 34°41' E 135°12'0 0.0
2014-Jul-26 23:30N 34°41' E 135°12'0 0.0
2014-Jul-26 22:30N 34°41' E 135°12'0 0.0
2014-Jul-26 21:30N 34°41' E 135°12'0 0.0
2014-Jul-26 20:33N 34°41' E 135°12'4 3.5
2014-Jul-26 19:33N 34°39' E 135°16'1110.6
2014-Jul-26 18:33N 34°35' E 135°03'1312.3
2014-Jul-26 17:32N 34°33' E 134°48'11111.1
2014-Jul-26 07:31N 34°02' E 132°39'114 3.9
2014-Jul-25 02:32N 34°35' E 134°51'1111.0
2014-Jul-25 01:33N 34°36' E 135°04'9 8.5
2014-Jul-25 00:30N 34°40' E 135°14'0 0.0
2014-Jul-24 23:30N 34°40' E 135°14'1 1.1
2014-Jul-24 22:33N 34°39' E 135°15'0 0.0
2014-Jul-24 21:27N 34°39' E 135°15'0 0.0
2014-Jul-24 20:33N 34°39' E 135°15'4 4.3
2014-Jul-24 19:33N 34°36' E 135°10'1111.0
2014-Jul-24 18:32N 34°36' E 134°57'11611.3
2014-Jul-24 08:19N 34°03' E 132°42'2311.1
2014-Jul-24 06:13N 33°50' E 132°19'18 1.5
2014-Jul-23 18:14N 34°01' E 132°37'11610.8
2014-Jul-23 07:33N 34°35' E 134°50'1212.3
2014-Jul-23 06:33N 34°36' E 135°05'8 8.1
2014-Jul-23 05:31N 34°40' E 135°14'0 0.0
2014-Jul-23 04:25N 34°40' E 135°14'0 0.0
2014-Jul-23 03:13N 34°40' E 135°14'0 0.0
2014-Jul-23 02:33N 34°40' E 135°14'2 2.2
2014-Jul-23 01:33N 34°37' E 135°14'1111.2
2014-Jul-23 00:33N 34°37' E 135°01'1211.9
2014-Jul-22 23:31N 34°32' E 134°47'10010.0
2014-Jul-22 13:28N 34°05' E 132°50'1011.1
2014-Jul-22 12:33N 33°57' E 132°42'110 3.8
2014-Jul-21 07:33N 34°33' E 134°47'1413.7
2014-Jul-21 06:33N 34°36' E 135°03'10 9.8
2014-Jul-21 05:33N 34°40' E 135°15'0 0.2
2014-Jul-21 04:33N 34°39' E 135°14'0 0.0
2014-Jul-21 03:33N 34°39' E 135°14'1 0.5
2014-Jul-21 02:33N 34°39' E 135°15'1 0.7
2014-Jul-21 01:30N 34°38' E 135°15'1 1.0
2014-Jul-21 00:33N 34°38' E 135°14'1010.5
2014-Jul-20 23:34N 34°36' E 135°02'  

Dump ship's entire track history